Time;durP1;ratioP1;P1;durP2;ratioP2;P2;SDS_P1;SDS_P2;PMS_P1;PMS_P2;Temp;Humidity;BMP_temperature;BMP_pressure;BME280_temperature;BME280_humidity;BME280_pressure;Samples;Min_cycle;Max_cycle;Signal;HPM_P1;HPM_P2
2022/02/08 00:01:21;;;;;;;23.02;3.88;;;;;;;7.82;100.00;102588.75;5107868;27;20131;-75
2022/02/08 00:03:48;;;;;;;26.23;2.90;;;;;;;7.83;100.00;102586.22;5095664;27;20020;-75
2022/02/08 00:06:32;;;;;;;31.35;3.38;;;;;;;7.87;100.00;102588.19;5073575;28;20046;-75
2022/02/08 00:08:57;;;;;;;22.60;4.13;;;;;;;7.87;100.00;102584.66;5086192;28;20027;-76
2022/02/08 00:11:22;;;;;;;29.13;3.80;;;;;;;7.92;100.00;102593.66;5094621;27;20031;-75
2022/02/08 00:13:48;;;;;;;26.17;4.13;;;;;;;7.93;100.00;102585.91;5099928;27;20016;-76
2022/02/08 00:16:13;;;;;;;25.67;3.17;;;;;;;7.98;100.00;102593.13;5116152;27;20031;-76
2022/02/08 00:18:38;;;;;;;19.50;3.30;;;;;;;7.98;100.00;102585.25;5113259;27;20047;-76
2022/02/08 00:21:04;;;;;;;20.13;3.08;;;;;;;8.00;100.00;102592.38;5131642;27;20050;-76
2022/02/08 00:23:29;;;;;;;28.48;3.90;;;;;;;8.03;100.00;102596.88;5094757;27;20555;-76
2022/02/08 00:25:54;;;;;;;25.67;4.10;;;;;;;8.04;100.00;102594.34;5103362;27;20032;-76
2022/02/08 00:28:20;;;;;;;14.38;2.97;;;;;;;8.08;100.00;102590.19;5103718;27;20023;-76
2022/02/08 00:30:45;;;;;;;22.40;3.50;;;;;;;8.13;100.00;102593.06;5088072;28;20480;-74
2022/02/08 00:33:10;;;;;;;31.50;4.95;;;;;;;8.16;100.00;102583.63;5100527;27;20028;-75
2022/02/08 00:35:36;;;;;;;32.28;4.13;;;;;;;8.18;100.00;102588.97;5095328;27;20124;-75
2022/02/08 00:38:02;;;;;;;21.67;3.20;;;;;;;8.21;100.00;102584.78;5102476;28;20383;-75
2022/02/08 00:40:27;;;;;;;20.40;3.40;;;;;;;8.25;100.00;102581.50;5105362;28;20020;-75
2022/02/08 00:42:53;;;;;;;20.85;3.35;;;;;;;8.29;100.00;102590.47;5095373;27;20060;-75
2022/02/08 00:48:04;;;;;;;21.00;2.97;;;;;;;8.38;100.00;102585.72;5098534;28;20126;-75
2022/02/08 00:50:29;;;;;;;12.68;3.80;;;;;;;8.42;100.00;102587.69;5082283;28;20043;-76
2022/02/08 00:52:55;;;;;;;22.45;3.75;;;;;;;8.46;100.00;102590.50;5098244;28;20486;-75
2022/02/08 00:55:20;;;;;;;21.45;4.28;;;;;;;8.48;100.00;102595.00;5115145;27;20030;-75
2022/02/08 00:57:45;;;;;;;24.83;3.70;;;;;;;8.52;100.00;102588.19;5110972;27;20104;-75
2022/02/08 01:00:11;;;;;;;23.15;3.47;;;;;;;8.58;100.00;102575.41;5101363;27;20031;-76
2022/02/08 01:02:37;;;;;;;16.00;3.20;;;;;;;8.65;100.00;102579.25;5082536;28;20050;-76
2022/02/08 01:05:05;;;;;;;15.85;3.55;;;;;;;8.66;100.00;102571.44;5088819;27;20023;-76
2022/02/08 01:07:31;;;;;;;19.77;3.40;;;;;;;8.67;100.00;102578.50;5111095;27;20115;-74
2022/02/08 01:10:01;;;;;;;18.17;3.83;;;;;;;8.71;100.00;102569.97;5100580;27;20048;-76
2022/02/08 01:12:30;;;;;;;19.55;4.18;;;;;;;8.70;100.00;102575.16;5085660;28;20027;-76
2022/02/08 01:14:57;;;;;;;22.23;4.65;;;;;;;8.70;100.00;102580.41;5079583;27;20490;-76
2022/02/08 01:17:25;;;;;;;21.70;4.57;;;;;;;8.72;100.00;102576.13;5102917;27;20019;-75
2022/02/08 01:19:57;;;;;;;33.50;4.88;;;;;;;8.74;100.00;102578.00;5103390;27;20491;-75
2022/02/08 01:22:23;;;;;;;26.77;5.27;;;;;;;8.73;100.00;102568.31;5101583;27;20023;-75
2022/02/08 01:24:50;;;;;;;27.65;4.35;;;;;;;8.75;100.00;102571.94;5081690;28;20091;-75
2022/02/08 01:27:17;;;;;;;13.05;4.10;;;;;;;8.70;100.00;102565.53;5080090;27;20039;-74
2022/02/08 01:32:21;;;;;;;29.17;4.85;;;;;;;8.72;100.00;102569.16;5113122;27;20042;-76
2022/02/08 01:40:06;;;;;;;26.35;4.90;;;;;;;8.74;100.00;102575.38;5098906;28;20050;-75
2022/02/08 01:48:16;;;;;;;29.48;5.43;;;;;;;8.75;100.00;102574.56;5102185;28;20100;-75
2022/02/08 01:50:42;;;;;;;25.35;5.47;;;;;;;8.75;100.00;102579.81;5106614;27;20051;-75
2022/02/08 01:53:08;;;;;;;23.38;5.43;;;;;;;8.76;100.00;102581.63;5105950;27;20035;-77
2022/02/08 01:55:34;;;;;;;30.75;6.47;;;;;;;8.78;100.00;102582.59;5088252;28;20031;-76
2022/02/08 01:58:02;;;;;;;30.58;6.25;;;;;;;8.79;100.00;102583.50;5085249;28;20364;-76
2022/02/08 02:00:28;;;;;;;30.77;6.82;;;;;;;8.82;100.00;102587.97;5104477;28;20028;-75
2022/02/08 02:02:54;;;;;;;25.88;7.15;;;;;;;8.81;100.00;102591.47;5100705;28;20045;-76
2022/02/08 02:05:19;;;;;;;28.02;7.05;;;;;;;8.80;100.00;102601.03;5099207;28;20023;-76
2022/02/08 02:07:49;;;;;;;26.38;6.78;;;;;;;8.81;100.00;102591.47;5094755;28;20082;-76
2022/02/08 02:10:17;;;;;;;29.63;6.38;;;;;;;8.82;100.00;102582.72;5095946;28;20027;-75
2022/02/08 02:12:55;;;;;;;28.35;7.07;;;;;;;8.81;100.00;102586.22;5094929;28;20434;-76
2022/02/08 02:15:22;;;;;;;26.33;6.55;;;;;;;8.86;100.00;102589.97;5089114;28;20522;-75
2022/02/08 02:17:47;;;;;;;25.52;6.35;;;;;;;8.87;100.00;102591.75;5099467;28;20475;-74
2022/02/08 02:20:13;;;;;;;35.65;7.75;;;;;;;8.88;100.00;102598.81;5100174;28;20038;-74
2022/02/08 02:22:38;;;;;;;24.95;6.78;;;;;;;8.87;100.00;102591.75;5083892;28;20122;-75
2022/02/08 02:25:04;;;;;;;26.55;6.85;;;;;;;8.85;100.00;102598.66;5100454;28;20095;-74
2022/02/08 02:27:30;;;;;;;33.63;6.43;;;;;;;8.85;100.00;102593.41;5093012;28;20066;-74
2022/02/08 02:29:55;;;;;;;23.48;6.35;;;;;;;8.84;100.00;102597.75;5093537;28;20028;-75
2022/02/08 02:32:20;;;;;;;30.58;6.53;;;;;;;8.84;100.00;102592.50;5087412;28;20387;-75
2022/02/08 02:34:48;;;;;;;30.15;5.85;;;;;;;8.84;100.00;102592.50;5101474;28;20028;-75
2022/02/08 02:37:16;;;;;;;29.73;6.55;;;;;;;8.87;100.00;102583.88;5107220;28;20023;-75
2022/02/08 02:39:41;;;;;;;17.30;4.82;;;;;;;8.88;100.00;102589.22;5112031;28;20035;-74
2022/02/08 02:42:15;;;;;;;35.38;5.32;;;;;;;8.86;100.00;102589.97;5086123;28;20028;-75
2022/02/08 02:44:40;;;;;;;18.95;4.63;;;;;;;8.87;100.00;102586.50;5097892;28;20086;-75
2022/02/08 02:47:06;;;;;;;21.08;4.78;;;;;;;8.93;100.00;102587.72;5096074;28;20053;-75
2022/02/08 02:49:32;;;;;;;29.63;4.68;;;;;;;8.93;100.00;102587.72;5074672;28;20494;-76
2022/02/08 02:51:57;;;;;;;24.27;4.53;;;;;;;8.96;100.00;102586.09;5109332;28;20036;-75
2022/02/08 02:54:23;;;;;;;19.55;4.05;;;;;;;9.00;100.00;102583.69;5106822;28;20020;-75
2022/02/08 02:56:49;;;;;;;29.33;4.28;;;;;;;8.99;100.00;102588.88;5082830;28;20481;-75
2022/02/08 02:59:18;;;;;;;30.17;4.60;;;;;;;9.02;100.00;102570.63;5105608;27;20038;-75
2022/02/08 03:04:43;;;;;;;27.48;4.47;;;;;;;8.99;100.00;102575.75;5119239;27;20024;-75
2022/02/08 03:20:33;;;;;;;23.83;4.55;;;;;;;9.02;100.00;102591.63;5113154;27;20031;-76
2022/02/08 03:22:58;;;;;;;27.25;3.97;;;;;;;9.01;100.00;102596.00;5094188;28;20407;-75
2022/02/08 03:25:24;;;;;;;27.02;4.32;;;;;;;9.02;100.00;102579.44;5111849;27;20024;-75
2022/02/08 03:27:49;;;;;;;20.35;2.95;;;;;;;9.04;100.00;102577.78;5106992;27;20518;-76
2022/02/08 03:30:14;;;;;;;21.80;3.30;;;;;;;9.03;100.00;102573.34;5082686;28;20126;-75
2022/02/08 03:32:40;;;;;;;21.10;3.42;;;;;;;9.01;100.00;102582.88;5104045;28;20107;-75
2022/02/08 03:35:07;;;;;;;17.65;2.92;;;;;;;9.06;100.00;102573.50;5082365;27;20450;-76
2022/02/08 03:37:33;;;;;;;24.10;3.30;;;;;;;9.02;100.00;102581.13;5087512;28;20538;-75
2022/02/08 03:40:06;;;;;;;22.27;3.58;;;;;;;9.01;100.00;102572.38;5099066;28;20361;-75
2022/02/08 03:42:55;;;;;;;15.90;2.97;;;;;;;9.08;100.00;102566.59;5102852;27;20095;-76
2022/02/08 03:45:21;;;;;;;18.15;3.17;;;;;;;9.09;100.00;102581.53;5092155;28;20023;-76
2022/02/08 03:47:46;;;;;;;18.50;3.03;;;;;;;9.09;100.00;102573.66;5101525;27;20035;-76
2022/02/08 03:50:11;;;;;;;22.27;3.47;;;;;;;9.07;100.00;102587.53;5108864;27;20031;-75
2022/02/08 03:52:38;;;;;;;20.17;4.25;;;;;;;9.13;100.00;102590.50;5086871;28;20024;-75
2022/02/08 03:55:03;;;;;;;15.93;3.60;;;;;;;9.10;100.00;102585.97;5085388;27;20016;-76
2022/02/08 03:57:29;;;;;;;9.80;2.35;;;;;;;9.11;100.00;102598.28;5092589;28;20039;-75
2022/02/08 03:59:54;;;;;;;22.67;3.45;;;;;;;9.13;100.00;102593.13;5088823;28;20144;-76
2022/02/08 04:04:56;;;;;;;19.30;2.67;;;;;;;9.13;100.00;102605.31;5100675;27;20046;-76
2022/02/08 04:07:36;;;;;;;21.08;3.40;;;;;;;9.17;100.00;102586.25;5118872;27;20031;-76
2022/02/08 04:10:05;;;;;;;22.10;3.50;;;;;;;9.15;100.00;102591.44;5105669;27;20468;-76
2022/02/08 04:18:18;;;;;;;16.23;2.78;;;;;;;9.10;100.00;102601.72;5108767;27;20047;-76
2022/02/08 04:42:43;;;;;;;20.38;2.67;;;;;;;9.18;100.00;102614.34;5110662;27;20496;-75
2022/02/08 04:47:46;;;;;;;14.75;2.70;;;;;;;9.19;100.00;102595.13;5099536;27;20055;-75
2022/02/08 04:50:14;;;;;;;29.67;3.17;;;;;;;9.20;100.00;102597.84;5109856;27;20032;-75
2022/02/08 04:52:40;;;;;;;21.67;2.80;;;;;;;9.18;100.00;102588.06;5113320;27;20478;-77
2022/02/08 04:55:33;;;;;;;17.80;3.03;;;;;;;9.20;100.00;102592.59;5084260;27;20115;-77
2022/02/08 04:58:41;;;;;;;19.20;2.83;;;;;;;9.18;100.00;102588.97;5087071;28;20031;-77
2022/02/08 05:01:11;;;;;;;21.98;2.47;;;;;;;9.19;100.00;102587.25;5101039;27;20509;-75
2022/02/08 05:37:05;;;;;;;16.63;2.45;;;;;;;9.33;100.00;102583.56;5101389;28;20058;-76
2022/02/08 05:44:56;;;;;;;8.25;1.75;;;;;;;9.38;100.00;102579.47;5081402;28;20031;-76
2022/02/08 05:47:22;;;;;;;14.13;1.73;;;;;;;9.40;100.00;102582.16;5107004;28;20040;-75
2022/02/08 05:50:03;;;;;;;13.13;2.35;;;;;;;9.43;100.00;102575.34;5092997;28;20023;-75
2022/02/08 05:54:57;;;;;;;24.35;3.00;;;;;;;9.44;100.00;102579.78;5099980;28;20107;-75
2022/02/08 05:57:23;;;;;;;8.43;2.13;;;;;;;9.43;100.00;102585.84;5083282;28;20529;-75
2022/02/08 05:59:50;;;;;;;9.60;1.88;;;;;;;9.42;100.00;102591.91;5101812;28;20153;-75
2022/02/08 06:02:16;;;;;;;11.48;1.98;;;;;;;9.47;100.00;102575.47;5101529;28;20428;-76
2022/02/08 06:04:43;;;;;;;10.77;2.30;;;;;;;9.43;100.00;102575.34;5086847;28;20107;-75
2022/02/08 06:07:11;;;;;;;10.73;2.28;;;;;;;9.44;100.00;102576.22;5107815;28;20379;-75
2022/02/08 06:09:36;;;;;;;13.38;1.98;;;;;;;9.47;100.00;102572.84;5085976;28;20479;-76
2022/02/08 06:12:02;;;;;;;20.70;3.15;;;;;;;9.45;100.00;102567.53;5104467;28;20031;-75
2022/02/08 06:14:29;;;;;;;15.90;2.25;;;;;;;9.44;100.00;102556.13;5103256;28;20024;-75
2022/02/08 06:16:54;;;;;;;9.27;2.05;;;;;;;9.44;100.00;102550.88;5104113;28;20088;-75
2022/02/08 06:19:20;;;;;;;18.75;2.83;;;;;;;9.43;100.00;102569.19;5111777;28;20046;-75
2022/02/08 06:21:45;;;;;;;19.25;2.33;;;;;;;9.45;100.00;102570.16;5106338;28;20047;-76
2022/02/08 06:24:12;;;;;;;16.77;2.63;;;;;;;9.42;100.00;102573.53;5076451;28;20031;-76
2022/02/08 06:26:38;;;;;;;15.43;2.70;;;;;;;9.45;100.00;102573.69;5094241;28;20038;-75
2022/02/08 06:29:08;;;;;;;11.15;2.10;;;;;;;9.45;100.00;102572.78;5102537;28;20027;-78
2022/02/08 06:31:34;;;;;;;12.45;2.33;;;;;;;9.47;100.00;102570.22;5109610;27;20027;-77
2022/02/08 06:33:59;;;;;;;12.80;2.40;;;;;;;9.45;100.00;102578.97;5106036;27;20364;-77
2022/02/08 06:36:25;;;;;;;12.13;2.30;;;;;;;9.47;100.00;102575.47;5122107;27;20047;-77
2022/02/08 06:38:50;;;;;;;13.05;3.03;;;;;;;9.45;100.00;102584.22;5097214;27;20043;-77
2022/02/08 06:41:17;;;;;;;19.13;3.30;;;;;;;9.47;100.00;102591.25;5107945;27;20483;-76
2022/02/08 06:43:42;;;;;;;11.48;2.20;;;;;;;9.49;100.00;102593.13;5079989;28;20058;-76
2022/02/08 06:46:08;;;;;;;14.52;2.60;;;;;;;9.49;100.00;102595.75;5097180;28;20064;-77
2022/02/08 06:48:33;;;;;;;10.93;2.63;;;;;;;9.52;100.00;102609.06;5104471;27;20028;-79
2022/02/08 06:50:58;;;;;;;10.60;2.42;;;;;;;9.53;100.00;102602.06;5107743;28;20050;-77
2022/02/08 06:53:26;;;;;;;8.70;1.90;;;;;;;9.53;100.00;102612.59;5111161;27;20055;-80
2022/02/08 06:55:51;;;;;;;14.48;2.67;;;;;;;9.56;100.00;102612.72;5093112;28;20448;-79
2022/02/08 06:58:19;;;;;;;17.50;2.00;;;;;;;9.56;100.00;102604.84;5082511;28;20035;-78
2022/02/08 07:00:47;;;;;;;11.52;1.95;;;;;;;9.54;100.00;102603.88;5089717;27;20049;-77
2022/02/08 07:03:16;;;;;;;18.15;2.45;;;;;;;9.58;100.00;102603.22;5111387;27;20363;-77
2022/02/08 07:05:43;;;;;;;11.13;2.50;;;;;;;9.58;100.00;102605.84;5113009;27;20030;-77
2022/02/08 07:08:10;;;;;;;7.15;1.48;;;;;;;9.57;100.00;102598.78;5100568;27;20444;-78
2022/02/08 07:10:36;;;;;;;13.05;2.08;;;;;;;9.55;100.00;102605.66;5119777;27;20027;-78
2022/02/08 07:13:03;;;;;;;14.35;2.15;;;;;;;9.51;100.00;102609.88;5105785;27;20019;-78
2022/02/08 07:15:30;;;;;;;19.48;2.58;;;;;;;9.50;100.00;102613.34;5092089;28;20043;-78
2022/02/08 07:17:55;;;;;;;10.57;2.13;;;;;;;9.47;100.00;102614.91;5120372;27;20046;-77
2022/02/08 07:20:20;;;;;;;15.85;2.20;;;;;;;9.44;100.00;102613.94;5092423;28;20023;-76
2022/02/08 07:22:46;;;;;;;16.67;2.90;;;;;;;9.48;100.00;102619.34;5101763;27;20024;-76
2022/02/08 07:25:12;;;;;;;12.38;2.30;;;;;;;9.44;100.00;102629.69;5086451;27;20028;-75
2022/02/08 07:27:38;;;;;;;11.75;1.95;;;;;;;9.42;100.00;102633.97;5080986;28;20031;-75
2022/02/08 07:30:10;;;;;;;19.10;3.88;;;;;;;9.43;100.00;102622.63;5098424;27;20031;-77
2022/02/08 07:32:38;;;;;;;18.30;2.42;;;;;;;9.44;100.00;102634.97;5084475;28;20067;-76
2022/02/08 07:38:05;;;;;;;15.30;2.50;;;;;;;9.40;100.00;102638.25;5115806;27;20068;-75
2022/02/08 07:43:02;;;;;;;8.88;1.77;;;;;;;9.38;100.00;102634.63;5102713;27;20495;-78
2022/02/08 07:45:27;;;;;;;13.02;1.85;;;;;;;9.37;100.00;102639.81;5107546;27;20023;-76
2022/02/08 07:47:52;;;;;;;18.05;2.30;;;;;;;9.40;100.00;102632.09;5106464;27;20385;-78
2022/02/08 07:50:22;;;;;;;9.20;1.33;;;;;;;9.43;100.00;102638.41;5104277;27;20043;-77
2022/02/08 07:52:50;;;;;;;11.43;1.83;;;;;;;9.44;100.00;102634.97;5095079;28;20471;-77
2022/02/08 07:55:15;;;;;;;15.23;2.70;;;;;;;9.47;100.00;102634.22;5115721;27;20019;-78
2022/02/08 07:57:41;;;;;;;11.00;2.05;;;;;;;9.50;100.00;102629.09;5123801;27;20023;-77
2022/02/08 08:00:07;;;;;;;23.50;1.90;;;;;;;9.50;100.00;102643.97;5084895;28;20058;-78
2022/02/08 08:02:35;;;;;;;13.65;3.20;;;;;;;9.54;100.00;102630.16;5076254;28;20035;-79
2022/02/08 08:05:01;;;;;;;9.68;1.92;;;;;;;9.53;100.00;102631.88;5100884;28;20035;-78
2022/02/08 08:07:26;;;;;;;8.90;1.75;;;;;;;9.51;100.00;102624.72;5087423;27;20387;-77
2022/02/08 08:09:51;;;;;;;12.45;2.45;;;;;;;9.53;100.00;102633.63;5098197;28;20036;-78
2022/02/08 08:12:17;;;;;;;15.43;2.25;;;;;;;9.53;100.00;102630.97;5101579;27;20387;-77
2022/02/08 08:14:43;;;;;;;13.13;2.10;;;;;;;9.57;100.00;102628.56;5087018;28;20054;-77
2022/02/08 08:19:52;;;;;;;12.68;2.20;;;;;;;9.66;100.00;102640.34;5103008;27;20092;-77
2022/02/08 08:22:17;;;;;;;13.68;1.67;;;;;;;9.64;100.00;102645.53;5106979;27;20028;-77
2022/02/08 08:24:44;;;;;;;11.55;2.85;;;;;;;9.66;100.00;102649.16;5110536;27;20379;-77
2022/02/08 08:27:09;;;;;;;18.20;2.40;;;;;;;9.61;100.00;102651.53;5085860;28;20031;-77
2022/02/08 08:29:35;;;;;;;9.40;1.75;;;;;;;9.70;100.00;102652.81;5096422;28;20032;-77
2022/02/08 08:32:00;;;;;;;10.68;1.50;;;;;;;9.68;100.00;102650.13;5103989;27;20132;-76
2022/02/08 08:34:26;;;;;;;16.45;1.98;;;;;;;9.64;100.00;102648.19;5087243;28;20173;-77
2022/02/08 08:36:52;;;;;;;13.80;1.92;;;;;;;9.64;100.00;102653.44;5100784;27;20036;-76
2022/02/08 08:39:23;;;;;;;13.10;2.35;;;;;;;9.69;99.90;102645.78;5108136;27;20452;-76
2022/02/08 08:42:15;;;;;;;11.27;1.80;;;;;;;9.72;100.00;102652.09;5095831;27;20382;-76
2022/02/08 08:50:08;;;;;;;7.18;1.40;;;;;;;9.81;99.44;102661.25;5115391;27;20403;-75
2022/02/08 08:52:37;;;;;;;11.07;2.72;;;;;;;9.82;98.79;102652.53;5093026;28;20027;-78
2022/02/08 08:55:05;;;;;;;7.00;2.00;;;;;;;9.91;98.87;102667.03;5089797;28;20475;-80
2022/02/08 08:57:30;;;;;;;11.18;1.67;;;;;;;9.95;98.08;102670.72;5079965;28;20371;-77
2022/02/08 08:59:55;;;;;;;10.27;2.17;;;;;;;9.98;97.67;102660.34;5093393;28;20134;-77
2022/02/08 09:02:21;;;;;;;13.32;2.53;;;;;;;10.03;97.48;102703.53;5093253;28;20036;-77
2022/02/08 09:04:48;;;;;;;17.30;2.58;;;;;;;10.09;97.40;102680.19;5087279;28;20417;-78
2022/02/08 09:07:14;;;;;;;14.82;2.42;;;;;;;10.19;97.22;102670.13;5089014;28;20026;-77
2022/02/08 09:09:43;;;;;;;11.07;1.48;;;;;;;10.28;96.52;102670.53;5070203;28;20028;-75
2022/02/08 09:12:19;;;;;;;10.32;1.92;;;;;;;10.22;96.24;102671.13;5087090;28;20026;-76
2022/02/08 09:25:01;;;;;;;13.70;2.13;;;;;;;10.72;94.50;102684.88;5094797;28;20032;-76
2022/02/08 09:30:15;;;;;;;11.88;1.95;;;;;;;10.62;94.03;102674.75;5075776;28;20097;-78
2022/02/08 09:35:08;;;;;;;11.23;1.58;;;;;;;10.68;93.72;102677.69;5088896;28;20058;-76
2022/02/08 09:37:33;;;;;;;9.65;2.13;;;;;;;10.75;93.67;102666.59;5089958;28;20033;-77
2022/02/08 09:40:00;;;;;;;14.85;1.73;;;;;;;10.78;93.07;102664.13;5066122;28;20373;-77
2022/02/08 09:42:25;;;;;;;11.27;1.88;;;;;;;10.73;92.84;102670.91;5065829;28;20074;-76
2022/02/08 09:44:53;;;;;;;12.65;2.28;;;;;;;10.78;92.60;102668.47;5065677;28;20036;-76
2022/02/08 09:47:21;;;;;;;7.72;1.77;;;;;;;10.81;91.95;102655.41;5091450;28;20087;-77
2022/02/08 09:49:55;;;;;;;7.72;1.58;;;;;;;10.79;92.02;102671.16;5088288;28;20030;-76
2022/02/08 09:52:21;;;;;;;13.45;2.30;;;;;;;10.79;92.21;102665.00;5061694;28;20024;-76
2022/02/08 09:54:47;;;;;;;8.52;1.73;;;;;;;10.80;91.58;102666.81;5055267;28;20040;-78
2022/02/08 09:57:13;;;;;;;8.68;1.98;;;;;;;10.86;91.66;102667.06;5067991;28;20027;-79
2022/02/08 09:59:38;;;;;;;8.10;1.58;;;;;;;10.83;91.17;102681.84;5085485;28;20033;-78
2022/02/08 10:02:04;;;;;;;12.10;1.98;;;;;;;10.85;91.91;102682.81;5081319;28;20040;-78
2022/02/08 10:04:30;;;;;;;6.70;1.35;;;;;;;10.91;91.46;102676.09;5083588;28;20041;-76
2022/02/08 10:06:55;;;;;;;8.45;1.77;;;;;;;10.94;91.05;102681.47;5064629;28;20408;-77
2022/02/08 10:09:31;;;;;;;12.00;1.45;;;;;;;10.94;90.31;102688.50;5065988;28;20032;-77
2022/02/08 10:11:58;;;;;;;14.30;2.13;;;;;;;10.93;90.50;102677.06;5063628;28;20117;-78
2022/02/08 10:22:31;;;;;;;13.85;2.22;;;;;;;10.97;89.99;102685.97;5069705;28;20050;-78
2022/02/08 10:25:12;;;;;;;14.77;2.13;;;;;;;10.96;89.59;102682.47;5055523;28;20107;-77
2022/02/08 10:27:48;;;;;;;14.27;1.73;;;;;;;11.01;89.78;102674.75;5086364;28;20119;-77
2022/02/08 10:38:45;;;;;;;8.52;1.52;;;;;;;10.98;89.88;102679.91;5090407;28;20552;-77
2022/02/08 10:41:18;;;;;;;12.65;1.85;;;;;;;11.05;89.63;102689.84;5086444;28;20028;-76
2022/02/08 10:43:58;;;;;;;12.73;1.55;;;;;;;11.20;89.50;102676.47;5075064;28;20116;-77
2022/02/08 10:46:24;;;;;;;9.60;1.90;;;;;;;11.21;88.66;102680.00;5077825;28;20499;-77
2022/02/08 10:49:07;;;;;;;11.75;1.35;;;;;;;11.28;87.77;102679.44;5084285;28;20028;-76
2022/02/08 10:51:56;;;;;;;6.13;1.10;;;;;;;11.27;88.51;102681.19;5104384;28;20039;-75
2022/02/08 10:54:33;;;;;;;13.57;1.73;;;;;;;11.26;87.89;102670.59;5099642;28;20036;-77
2022/02/08 10:57:08;;;;;;;7.65;1.55;;;;;;;11.31;88.33;102669.00;5117056;28;20055;-76
2022/02/08 10:59:44;;;;;;;15.65;2.00;;;;;;;11.37;88.15;102661.38;5109876;28;20039;-76
2022/02/08 11:02:26;;;;;;;15.77;3.28;;;;;;;11.43;87.81;102666.91;5077096;28;20062;-76
2022/02/08 11:05:00;;;;;;;9.90;1.55;;;;;;;11.54;87.60;102666.47;5104694;28;20472;-77
2022/02/08 11:10:24;;;;;;;13.60;2.10;;;;;;;12.02;84.78;102668.44;5124092;28;20483;-77
2022/02/08 11:13:01;;;;;;;10.00;1.50;;;;;;;11.96;84.41;102671.72;5126863;28;20034;-76
2022/02/08 11:15:41;;;;;;;8.90;1.58;;;;;;;11.78;85.38;102669.22;5094098;28;20038;-76
2022/02/08 11:21:17;;;;;;;15.43;2.33;;;;;;;11.52;86.70;102670.78;5115133;27;20658;-77
2022/02/08 11:23:58;;;;;;;14.88;2.40;;;;;;;11.45;86.14;102667.00;5113480;27;20434;-78
2022/02/08 11:26:38;;;;;;;8.80;1.85;;;;;;;11.51;86.50;102669.88;5105832;27;20031;-77
2022/02/08 11:29:23;;;;;;;8.77;2.00;;;;;;;11.78;85.58;102664.84;5096633;28;20036;-74
2022/02/08 11:46:08;;;;;;;10.45;1.70;;;;;;;12.85;80.07;102652.25;5107642;27;20127;-75
2022/02/08 11:54:04;;;;;;;17.13;1.85;;;;;;;12.55;80.51;102639.72;5104232;27;20106;-73
2022/02/08 11:56:53;;;;;;;11.38;1.90;;;;;;;12.45;80.58;102638.44;5091422;28;20105;-74
2022/02/08 11:59:33;;;;;;;15.50;1.85;;;;;;;12.31;80.97;102625.59;5090576;28;20467;-73
2022/02/08 12:07:37;;;;;;;19.25;1.98;;;;;;;12.73;79.31;102637.72;5101195;27;20125;-75
2022/02/08 12:10:23;;;;;;;11.50;1.40;;;;;;;12.44;79.77;102655.16;5091185;27;20030;-74
2022/02/08 12:57:10;;;;;;;11.30;1.63;;;;;;;11.67;84.68;102663.50;5101638;27;20040;-75
2022/02/08 13:02:17;;;;;;;8.68;1.60;;;;;;;11.47;86.10;102662.66;5107744;27;20050;-75
2022/02/08 13:04:52;;;;;;;15.15;1.90;;;;;;;11.50;86.32;102661.91;5096943;27;20072;-76
2022/02/08 14:01:59;;;;;;;10.55;1.67;;;;;;;12.42;83.72;102641.84;5109650;27;20034;-74
2022/02/08 14:07:17;;;;;;;8.32;1.65;;;;;;;13.42;78.39;102628.72;5112423;27;20034;-78
2022/02/08 14:15:30;;;;;;;11.57;2.15;;;;;;;13.90;76.79;102632.88;5115926;28;20536;-77
2022/02/08 14:23:12;;;;;;;9.63;1.80;;;;;;;13.92;75.58;102636.50;5105931;28;20039;-77
2022/02/08 14:31:36;;;;;;;11.00;2.13;;;;;;;14.75;72.31;102634.56;5119164;28;20039;-78
2022/02/08 14:34:18;;;;;;;12.13;2.08;;;;;;;14.36;73.86;102649.28;5110504;28;20494;-78
2022/02/08 15:08:56;;;;;;;9.18;1.40;;;;;;;13.11;77.84;102666.38;5127169;27;19953;-77
2022/02/08 15:11:29;;;;;;;15.80;2.15;;;;;;;13.00;78.52;102663.34;5100473;27;20020;-76
2022/02/08 15:13:58;;;;;;;10.67;2.03;;;;;;;13.59;76.82;102657.47;5117858;27;20122;-77
2022/02/08 15:16:29;;;;;;;6.95;1.35;;;;;;;13.64;76.11;102658.50;5102432;28;20055;-77
2022/02/08 15:18:55;;;;;;;10.60;1.60;;;;;;;14.05;75.30;102666.88;5109986;27;20019;-77
2022/02/08 15:21:29;;;;;;;12.48;1.92;;;;;;;13.96;75.26;102658.69;5106231;27;20023;-77
2022/02/08 15:23:55;;;;;;;4.85;1.23;;;;;;;13.80;75.04;102658.16;5118871;27;20022;-77
2022/02/08 15:26:20;;;;;;;7.88;1.77;;;;;;;13.82;75.16;102656.47;5108948;27;20035;-77
2022/02/08 15:28:47;;;;;;;3.63;1.30;;;;;;;13.10;77.96;102664.56;5107617;27;20035;-76
2022/02/08 15:31:12;;;;;;;4.68;1.10;;;;;;;12.51;80.44;102653.59;5117250;27;20106;-77
2022/02/08 15:33:38;;;;;;;6.63;1.73;;;;;;;12.40;81.20;102656.75;5091303;28;20119;-77
2022/02/08 15:36:04;;;;;;;10.57;1.50;;;;;;;11.96;82.66;102655.91;5112070;27;20024;-76
2022/02/08 15:38:32;;;;;;;8.40;1.40;;;;;;;11.70;84.20;102660.09;5109081;27;20103;-77
2022/02/08 15:40:59;;;;;;;11.15;1.50;;;;;;;11.55;85.07;102661.25;5097972;27;20088;-76
2022/02/08 15:43:25;;;;;;;8.07;1.63;;;;;;;11.67;84.87;102654.72;5110772;27;20288;-76
2022/02/08 15:46:06;;;;;;;8.68;1.30;;;;;;;11.48;85.35;102649.53;5133887;27;20068;-77
2022/02/08 15:48:34;;;;;;;8.32;1.50;;;;;;;11.37;85.45;102658.75;5103572;27;20043;-76
2022/02/08 15:51:04;;;;;;;6.30;1.40;;;;;;;11.20;86.58;102651.84;5124018;27;20478;-76
2022/02/08 16:08:53;;;;;;;8.30;1.88;;;;;;;10.76;89.50;102670.13;5099350;27;19993;-75
2022/02/08 16:14:10;;;;;;;8.65;1.30;;;;;;;10.62;90.10;102678.31;5111258;27;20031;-75
2022/02/08 16:27:17;;;;;;;10.45;1.50;;;;;;;10.56;91.09;102685.03;5106311;28;20036;-77
2022/02/08 16:49:08;;;;;;;6.77;1.73;;;;;;;10.19;93.10;102706.94;5103027;27;19922;-76
2022/02/08 16:59:30;;;;;;;6.38;1.40;;;;;;;10.00;94.34;102720.91;5118606;27;20449;-76
2022/02/08 17:01:59;;;;;;;10.40;1.52;;;;;;;9.95;94.53;102718.06;5113192;27;20484;-75
2022/02/08 17:04:24;;;;;;;17.90;2.15;;;;;;;10.02;94.83;102719.25;5087655;28;20483;-76
2022/02/08 17:06:50;;;;;;;8.77;1.50;;;;;;;10.00;94.65;102732.34;5113397;27;20081;-75
2022/02/08 17:09:22;;;;;;;10.98;1.67;;;;;;;9.97;95.08;102724.31;5082410;27;20126;-75
2022/02/08 17:12:14;;;;;;;9.93;1.65;;;;;;;9.93;95.16;102724.97;5104986;27;20028;-75
2022/02/08 17:47:49;;;;;;;11.02;1.75;;;;;;;9.67;97.08;102708.81;5102086;28;20514;-75
2022/02/08 17:49:49;;;;;;;7.40;1.88;;;;;;;9.65;97.21;102707.81;5083238;28;20400;-76
2022/02/08 17:52:15;;;;;;;13.57;1.48;;;;;;;9.64;96.88;102699.84;5103189;27;20040;-75
2022/02/08 17:54:40;;;;;;;9.18;1.60;;;;;;;9.66;96.89;102703.44;5089737;27;20042;-74
2022/02/08 17:57:06;;;;;;;6.10;1.65;;;;;;;9.55;97.20;102700.28;5084002;28;20027;-76
2022/02/08 17:59:32;;;;;;;8.15;1.67;;;;;;;9.59;96.80;102707.50;5091433;27;20433;-75
2022/02/08 18:01:58;;;;;;;15.88;2.28;;;;;;;9.52;97.37;102700.13;5101770;27;20024;-76
2022/02/08 18:04:23;;;;;;;8.07;1.75;;;;;;;9.52;97.49;102694.88;5088163;28;20024;-75
2022/02/08 18:06:48;;;;;;;19.52;2.30;;;;;;;9.51;97.67;102693.97;5084351;28;20387;-77
2022/02/08 18:09:17;;;;;;;12.32;1.85;;;;;;;9.47;97.84;102697.28;5101580;27;20107;-76
2022/02/08 18:11:43;;;;;;;6.25;1.73;;;;;;;9.43;98.36;102700.56;5115301;28;20023;-75
2022/02/08 18:14:11;;;;;;;10.85;1.77;;;;;;;9.38;98.94;102697.69;5110520;28;20775;-75
2022/02/08 18:16:37;;;;;;;10.43;2.53;;;;;;;9.38;99.24;102697.69;5084871;28;20089;-76
2022/02/08 18:19:12;;;;;;;6.70;1.58;;;;;;;9.35;99.54;102696.66;5098870;28;20425;-75
2022/02/08 18:21:55;;;;;;;13.13;2.33;;;;;;;9.34;99.91;102702.72;5114171;28;20024;-75
2022/02/08 18:24:42;;;;;;;14.43;2.20;;;;;;;9.32;99.90;102706.97;5106973;28;20115;-76
2022/02/08 18:56:49;;;;;;;10.90;1.65;;;;;;;9.31;100.00;102734.09;5105678;28;20125;-76
2022/02/08 19:05:57;;;;;;;10.93;1.70;;;;;;;9.29;100.00;102710.34;5105750;28;19922;-75
2022/02/08 19:07:37;;;;;;;13.15;3.25;;;;;;;9.34;100.00;102713.22;5099796;28;20135;-75